sensor_id;sensor_type;location;lat;lon;timestamp;temperature;humidity
23803;DHT22;12082;51.786;6.018;2023-04-21T00:00:55;7.00;99.90
23803;DHT22;12082;51.786;6.018;2023-04-21T00:03:21;7.00;99.90
23803;DHT22;12082;51.786;6.018;2023-04-21T00:05:48;7.00;99.90
23803;DHT22;12082;51.786;6.018;2023-04-21T00:08:15;7.00;99.90
23803;DHT22;12082;51.786;6.018;2023-04-21T00:10:41;7.00;99.90
23803;DHT22;12082;51.786;6.018;2023-04-21T00:13:07;7.00;99.90
23803;DHT22;12082;51.786;6.018;2023-04-21T00:15:32;7.00;99.90
23803;DHT22;12082;51.786;6.018;2023-04-21T00:17:58;7.00;99.90
23803;DHT22;12082;51.786;6.018;2023-04-21T00:20:24;6.90;99.90
23803;DHT22;12082;51.786;6.018;2023-04-21T00:22:54;7.00;99.90
23803;DHT22;12082;51.786;6.018;2023-04-21T00:25:20;7.00;99.90
23803;DHT22;12082;51.786;6.018;2023-04-21T00:27:45;7.00;99.90
23803;DHT22;12082;51.786;6.018;2023-04-21T00:30:11;7.00;99.90
23803;DHT22;12082;51.786;6.018;2023-04-21T00:32:36;7.00;99.90
23803;DHT22;12082;51.786;6.018;2023-04-21T00:35:02;7.00;99.90
23803;DHT22;12082;51.786;6.018;2023-04-21T00:37:28;7.00;99.90
23803;DHT22;12082;51.786;6.018;2023-04-21T00:39:54;7.00;99.90
23803;DHT22;12082;51.786;6.018;2023-04-21T00:42:20;7.00;99.90
23803;DHT22;12082;51.786;6.018;2023-04-21T00:44:45;6.90;99.90
23803;DHT22;12082;51.786;6.018;2023-04-21T00:47:11;7.00;99.90
23803;DHT22;12082;51.786;6.018;2023-04-21T00:49:36;7.00;99.90
23803;DHT22;12082;51.786;6.018;2023-04-21T00:52:04;7.00;99.90
23803;DHT22;12082;51.786;6.018;2023-04-21T00:54:30;7.00;99.90
23803;DHT22;12082;51.786;6.018;2023-04-21T00:56:56;7.00;99.90
23803;DHT22;12082;51.786;6.018;2023-04-21T00:59:23;7.10;99.90
23803;DHT22;12082;51.786;6.018;2023-04-21T01:01:48;7.00;99.90
23803;DHT22;12082;51.786;6.018;2023-04-21T01:04:14;6.90;99.90
23803;DHT22;12082;51.786;6.018;2023-04-21T01:06:41;7.00;99.90
23803;DHT22;12082;51.786;6.018;2023-04-21T01:09:07;7.00;99.90
23803;DHT22;12082;51.786;6.018;2023-04-21T01:11:32;7.00;99.90
23803;DHT22;12082;51.786;6.018;2023-04-21T01:13:58;7.00;99.90
23803;DHT22;12082;51.786;6.018;2023-04-21T01:16:24;7.10;99.90
23803;DHT22;12082;51.786;6.018;2023-04-21T01:18:51;7.00;99.90
23803;DHT22;12082;51.786;6.018;2023-04-21T01:21:18;7.10;99.90
23803;DHT22;12082;51.786;6.018;2023-04-21T01:23:44;7.00;99.90
23803;DHT22;12082;51.786;6.018;2023-04-21T01:26:10;7.10;99.90
23803;DHT22;12082;51.786;6.018;2023-04-21T01:28:36;7.10;99.90
23803;DHT22;12082;51.786;6.018;2023-04-21T01:31:02;7.10;99.90
23803;DHT22;12082;51.786;6.018;2023-04-21T01:33:28;7.10;99.90
23803;DHT22;12082;51.786;6.018;2023-04-21T01:35:54;7.10;99.90
23803;DHT22;12082;51.786;6.018;2023-04-21T01:38:21;7.20;99.90
23803;DHT22;12082;51.786;6.018;2023-04-21T01:40:48;7.10;99.90
23803;DHT22;12082;51.786;6.018;2023-04-21T01:43:16;7.20;99.90
23803;DHT22;12082;51.786;6.018;2023-04-21T01:45:43;7.20;99.90
23803;DHT22;12082;51.786;6.018;2023-04-21T01:48:09;7.20;99.90
23803;DHT22;12082;51.786;6.018;2023-04-21T01:50:34;6.80;99.90
23803;DHT22;12082;51.786;6.018;2023-04-21T01:53:00;7.20;99.90
23803;DHT22;12082;51.786;6.018;2023-04-21T01:55:25;7.20;99.90
23803;DHT22;12082;51.786;6.018;2023-04-21T01:57:51;7.20;99.90
23803;DHT22;12082;51.786;6.018;2023-04-21T02:00:17;7.20;99.90
23803;DHT22;12082;51.786;6.018;2023-04-21T02:02:42;7.20;99.90
23803;DHT22;12082;51.786;6.018;2023-04-21T02:05:08;7.20;99.90
23803;DHT22;12082;51.786;6.018;2023-04-21T02:07:34;7.20;99.90
23803;DHT22;12082;51.786;6.018;2023-04-21T02:09:59;7.20;99.90
23803;DHT22;12082;51.786;6.018;2023-04-21T02:12:25;7.20;99.90
23803;DHT22;12082;51.786;6.018;2023-04-21T02:14:50;7.20;99.90
23803;DHT22;12082;51.786;6.018;2023-04-21T02:17:16;7.20;99.90
23803;DHT22;12082;51.786;6.018;2023-04-21T02:19:42;7.20;99.90
23803;DHT22;12082;51.786;6.018;2023-04-21T02:22:07;7.20;99.90
23803;DHT22;12082;51.786;6.018;2023-04-21T02:24:35;7.20;99.90
23803;DHT22;12082;51.786;6.018;2023-04-21T02:27:00;7.20;99.90
23803;DHT22;12082;51.786;6.018;2023-04-21T02:29:26;7.20;99.90
23803;DHT22;12082;51.786;6.018;2023-04-21T02:31:52;7.20;99.90
23803;DHT22;12082;51.786;6.018;2023-04-21T02:34:17;7.20;99.90
23803;DHT22;12082;51.786;6.018;2023-04-21T02:36:43;7.20;99.90
23803;DHT22;12082;51.786;6.018;2023-04-21T02:39:08;7.20;99.90
23803;DHT22;12082;51.786;6.018;2023-04-21T02:41:34;7.20;99.90
23803;DHT22;12082;51.786;6.018;2023-04-21T02:44:00;7.20;99.90
23803;DHT22;12082;51.786;6.018;2023-04-21T02:46:25;7.20;99.90
23803;DHT22;12082;51.786;6.018;2023-04-21T02:48:51;7.20;99.90
23803;DHT22;12082;51.786;6.018;2023-04-21T02:51:16;7.20;99.90
23803;DHT22;12082;51.786;6.018;2023-04-21T02:53:42;7.20;99.90
23803;DHT22;12082;51.786;6.018;2023-04-21T02:56:08;7.20;99.90
23803;DHT22;12082;51.786;6.018;2023-04-21T02:58:36;7.20;99.90
23803;DHT22;12082;51.786;6.018;2023-04-21T03:01:03;7.20;99.90
23803;DHT22;12082;51.786;6.018;2023-04-21T03:03:29;7.20;99.90
23803;DHT22;12082;51.786;6.018;2023-04-21T03:05:59;7.20;99.90
23803;DHT22;12082;51.786;6.018;2023-04-21T03:08:25;7.20;99.90
23803;DHT22;12082;51.786;6.018;2023-04-21T03:10:51;7.20;99.90
23803;DHT22;12082;51.786;6.018;2023-04-21T03:13:17;7.20;99.90
23803;DHT22;12082;51.786;6.018;2023-04-21T03:15:42;7.20;99.90
23803;DHT22;12082;51.786;6.018;2023-04-21T03:18:08;6.20;99.90
23803;DHT22;12082;51.786;6.018;2023-04-21T03:20:34;7.20;99.90
23803;DHT22;12082;51.786;6.018;2023-04-21T03:22:59;7.20;99.90
23803;DHT22;12082;51.786;6.018;2023-04-21T03:25:25;7.30;99.90
23803;DHT22;12082;51.786;6.018;2023-04-21T03:27:52;7.20;99.90
23803;DHT22;12082;51.786;6.018;2023-04-21T03:30:18;7.20;99.90
23803;DHT22;12082;51.786;6.018;2023-04-21T03:32:44;7.30;99.90
23803;DHT22;12082;51.786;6.018;2023-04-21T03:35:10;7.20;99.90
23803;DHT22;12082;51.786;6.018;2023-04-21T03:37:35;7.30;99.90
23803;DHT22;12082;51.786;6.018;2023-04-21T03:40:01;7.30;99.90
23803;DHT22;12082;51.786;6.018;2023-04-21T03:42:27;7.30;99.90
23803;DHT22;12082;51.786;6.018;2023-04-21T03:44:54;7.30;99.90
23803;DHT22;12082;51.786;6.018;2023-04-21T03:47:19;7.30;99.90
23803;DHT22;12082;51.786;6.018;2023-04-21T03:49:45;7.30;99.90
23803;DHT22;12082;51.786;6.018;2023-04-21T03:52:11;7.30;99.90
23803;DHT22;12082;51.786;6.018;2023-04-21T03:54:36;7.30;99.90
23803;DHT22;12082;51.786;6.018;2023-04-21T03:57:02;7.30;99.90
23803;DHT22;12082;51.786;6.018;2023-04-21T03:59:27;7.40;99.90
23803;DHT22;12082;51.786;6.018;2023-04-21T04:01:53;7.40;99.90
23803;DHT22;12082;51.786;6.018;2023-04-21T04:04:18;7.40;99.90
23803;DHT22;12082;51.786;6.018;2023-04-21T04:06:44;7.40;99.90
23803;DHT22;12082;51.786;6.018;2023-04-21T04:09:09;7.40;99.90
23803;DHT22;12082;51.786;6.018;2023-04-21T04:11:35;7.40;99.90
23803;DHT22;12082;51.786;6.018;2023-04-21T04:14:00;7.40;99.90
23803;DHT22;12082;51.786;6.018;2023-04-21T04:16:26;7.40;99.90
23803;DHT22;12082;51.786;6.018;2023-04-21T04:18:53;7.40;99.90
23803;DHT22;12082;51.786;6.018;2023-04-21T04:21:18;7.40;99.90
23803;DHT22;12082;51.786;6.018;2023-04-21T04:23:44;7.30;99.90
23803;DHT22;12082;51.786;6.018;2023-04-21T04:26:10;7.40;99.90
23803;DHT22;12082;51.786;6.018;2023-04-21T04:28:36;7.30;99.90
23803;DHT22;12082;51.786;6.018;2023-04-21T04:31:01;7.30;99.90
23803;DHT22;12082;51.786;6.018;2023-04-21T04:33:27;7.30;99.90
23803;DHT22;12082;51.786;6.018;2023-04-21T04:35:53;7.30;99.90
23803;DHT22;12082;51.786;6.018;2023-04-21T04:38:19;7.30;99.90
23803;DHT22;12082;51.786;6.018;2023-04-21T04:40:44;7.30;99.90
23803;DHT22;12082;51.786;6.018;2023-04-21T04:43:17;7.20;99.90
23803;DHT22;12082;51.786;6.018;2023-04-21T04:45:43;7.20;99.90
23803;DHT22;12082;51.786;6.018;2023-04-21T04:48:09;7.20;99.90
23803;DHT22;12082;51.786;6.018;2023-04-21T04:50:35;7.10;99.90
23803;DHT22;12082;51.786;6.018;2023-04-21T04:53:01;7.10;99.90
23803;DHT22;12082;51.786;6.018;2023-04-21T04:55:26;7.20;99.90
23803;DHT22;12082;51.786;6.018;2023-04-21T04:57:52;7.20;99.90
23803;DHT22;12082;51.786;6.018;2023-04-21T05:00:18;7.20;99.90
23803;DHT22;12082;51.786;6.018;2023-04-21T05:02:43;7.20;99.90
23803;DHT22;12082;51.786;6.018;2023-04-21T05:05:09;7.30;99.90
23803;DHT22;12082;51.786;6.018;2023-04-21T05:07:35;7.30;99.90
23803;DHT22;12082;51.786;6.018;2023-04-21T05:10:01;7.30;99.90
23803;DHT22;12082;51.786;6.018;2023-04-21T05:12:29;7.30;99.90
23803;DHT22;12082;51.786;6.018;2023-04-21T05:14:55;7.30;99.90
23803;DHT22;12082;51.786;6.018;2023-04-21T05:17:20;7.20;99.90
23803;DHT22;12082;51.786;6.018;2023-04-21T05:19:46;7.30;99.90
23803;DHT22;12082;51.786;6.018;2023-04-21T05:22:11;7.30;99.90
23803;DHT22;12082;51.786;6.018;2023-04-21T05:24:37;7.30;99.90
23803;DHT22;12082;51.786;6.018;2023-04-21T05:27:05;7.30;99.90
23803;DHT22;12082;51.786;6.018;2023-04-21T05:29:30;7.30;99.90
23803;DHT22;12082;51.786;6.018;2023-04-21T05:31:58;7.30;99.90
23803;DHT22;12082;51.786;6.018;2023-04-21T05:34:24;7.30;99.90
23803;DHT22;12082;51.786;6.018;2023-04-21T05:36:49;7.40;99.90
23803;DHT22;12082;51.786;6.018;2023-04-21T05:39:16;7.40;99.90
23803;DHT22;12082;51.786;6.018;2023-04-21T05:41:42;7.50;99.90
23803;DHT22;12082;51.786;6.018;2023-04-21T05:44:08;7.50;99.90
23803;DHT22;12082;51.786;6.018;2023-04-21T05:46:33;7.50;99.90
23803;DHT22;12082;51.786;6.018;2023-04-21T05:49:00;7.60;99.90
23803;DHT22;12082;51.786;6.018;2023-04-21T05:51:28;7.60;99.90
23803;DHT22;12082;51.786;6.018;2023-04-21T05:53:53;7.70;99.90
23803;DHT22;12082;51.786;6.018;2023-04-21T05:56:19;7.70;99.90
23803;DHT22;12082;51.786;6.018;2023-04-21T05:58:45;7.80;99.90
23803;DHT22;12082;51.786;6.018;2023-04-21T06:01:11;7.80;99.90
23803;DHT22;12082;51.786;6.018;2023-04-21T06:03:37;7.90;99.90
23803;DHT22;12082;51.786;6.018;2023-04-21T06:06:04;7.90;99.90
23803;DHT22;12082;51.786;6.018;2023-04-21T06:08:30;8.00;99.90
23803;DHT22;12082;51.786;6.018;2023-04-21T06:10:56;8.20;99.90
23803;DHT22;12082;51.786;6.018;2023-04-21T06:13:22;8.30;99.90
23803;DHT22;12082;51.786;6.018;2023-04-21T06:15:47;8.90;99.90
23803;DHT22;12082;51.786;6.018;2023-04-21T06:18:13;9.50;99.90
23803;DHT22;12082;51.786;6.018;2023-04-21T06:20:38;10.20;99.90
23803;DHT22;12082;51.786;6.018;2023-04-21T06:23:05;10.60;99.90
23803;DHT22;12082;51.786;6.018;2023-04-21T06:25:31;11.30;99.90
23803;DHT22;12082;51.786;6.018;2023-04-21T06:27:56;11.40;99.90
23803;DHT22;12082;51.786;6.018;2023-04-21T06:30:22;11.60;99.90
23803;DHT22;12082;51.786;6.018;2023-04-21T06:32:48;12.40;99.90
23803;DHT22;12082;51.786;6.018;2023-04-21T06:35:14;12.70;99.90
23803;DHT22;12082;51.786;6.018;2023-04-21T06:37:40;12.80;99.90
23803;DHT22;12082;51.786;6.018;2023-04-21T06:40:06;13.00;99.90
23803;DHT22;12082;51.786;6.018;2023-04-21T06:42:32;13.30;99.90
23803;DHT22;12082;51.786;6.018;2023-04-21T06:44:58;13.20;99.90
23803;DHT22;12082;51.786;6.018;2023-04-21T06:47:23;12.90;99.90
23803;DHT22;12082;51.786;6.018;2023-04-21T06:49:49;12.50;99.90
23803;DHT22;12082;51.786;6.018;2023-04-21T06:52:14;12.30;99.90
23803;DHT22;12082;51.786;6.018;2023-04-21T06:54:40;11.90;99.90
23803;DHT22;12082;51.786;6.018;2023-04-21T06:57:05;11.70;99.90
23803;DHT22;12082;51.786;6.018;2023-04-21T06:59:31;11.60;99.90
23803;DHT22;12082;51.786;6.018;2023-04-21T07:01:58;11.60;99.90
23803;DHT22;12082;51.786;6.018;2023-04-21T07:04:24;11.70;99.90
23803;DHT22;12082;51.786;6.018;2023-04-21T07:06:54;11.70;99.90
23803;DHT22;12082;51.786;6.018;2023-04-21T07:09:20;11.50;99.90
23803;DHT22;12082;51.786;6.018;2023-04-21T07:11:46;11.40;99.90
23803;DHT22;12082;51.786;6.018;2023-04-21T07:14:11;11.60;99.90
23803;DHT22;12082;51.786;6.018;2023-04-21T07:16:37;11.60;99.90
23803;DHT22;12082;51.786;6.018;2023-04-21T07:19:02;12.00;99.90
23803;DHT22;12082;51.786;6.018;2023-04-21T07:21:28;12.40;99.90
23803;DHT22;12082;51.786;6.018;2023-04-21T07:24:01;13.20;99.90
23803;DHT22;12082;51.786;6.018;2023-04-21T07:26:26;13.70;99.90
23803;DHT22;12082;51.786;6.018;2023-04-21T07:28:52;14.00;99.90
23803;DHT22;12082;51.786;6.018;2023-04-21T07:31:18;14.00;99.90
23803;DHT22;12082;51.786;6.018;2023-04-21T07:33:43;14.50;99.90
23803;DHT22;12082;51.786;6.018;2023-04-21T07:36:09;14.50;99.90
23803;DHT22;12082;51.786;6.018;2023-04-21T07:38:35;14.20;99.90
23803;DHT22;12082;51.786;6.018;2023-04-21T07:41:02;14.30;99.90
23803;DHT22;12082;51.786;6.018;2023-04-21T07:43:28;14.20;99.90
23803;DHT22;12082;51.786;6.018;2023-04-21T07:45:56;14.10;99.90
23803;DHT22;12082;51.786;6.018;2023-04-21T07:48:21;13.80;99.90
23803;DHT22;12082;51.786;6.018;2023-04-21T07:50:47;13.90;99.90
23803;DHT22;12082;51.786;6.018;2023-04-21T07:53:14;13.60;99.90
23803;DHT22;12082;51.786;6.018;2023-04-21T07:55:40;13.70;99.90
23803;DHT22;12082;51.786;6.018;2023-04-21T07:58:06;13.80;99.90
23803;DHT22;12082;51.786;6.018;2023-04-21T08:00:32;13.60;99.90
23803;DHT22;12082;51.786;6.018;2023-04-21T08:02:57;13.30;99.90
23803;DHT22;12082;51.786;6.018;2023-04-21T08:05:23;13.00;99.90
23803;DHT22;12082;51.786;6.018;2023-04-21T08:07:49;12.90;99.90
23803;DHT22;12082;51.786;6.018;2023-04-21T08:10:14;12.90;99.90
23803;DHT22;12082;51.786;6.018;2023-04-21T08:12:41;12.70;99.90
23803;DHT22;12082;51.786;6.018;2023-04-21T08:15:07;12.90;99.90
23803;DHT22;12082;51.786;6.018;2023-04-21T08:17:33;13.40;99.90
23803;DHT22;12082;51.786;6.018;2023-04-21T08:19:59;13.70;99.90
23803;DHT22;12082;51.786;6.018;2023-04-21T08:22:25;13.60;99.90
23803;DHT22;12082;51.786;6.018;2023-04-21T08:24:51;13.40;99.90
23803;DHT22;12082;51.786;6.018;2023-04-21T08:27:16;13.00;99.90
23803;DHT22;12082;51.786;6.018;2023-04-21T08:29:42;13.10;99.90
23803;DHT22;12082;51.786;6.018;2023-04-21T08:32:07;13.40;99.90
23803;DHT22;12082;51.786;6.018;2023-04-21T08:34:33;13.30;99.90
23803;DHT22;12082;51.786;6.018;2023-04-21T08:36:59;13.20;99.90
23803;DHT22;12082;51.786;6.018;2023-04-21T08:39:24;13.00;99.90
23803;DHT22;12082;51.786;6.018;2023-04-21T08:41:51;13.00;99.90
23803;DHT22;12082;51.786;6.018;2023-04-21T08:44:16;12.90;99.90
23803;DHT22;12082;51.786;6.018;2023-04-21T08:46:44;12.80;99.90
23803;DHT22;12082;51.786;6.018;2023-04-21T08:49:18;12.80;99.90
23803;DHT22;12082;51.786;6.018;2023-04-21T08:51:44;13.00;99.90
23803;DHT22;12082;51.786;6.018;2023-04-21T08:54:10;12.90;99.90
23803;DHT22;12082;51.786;6.018;2023-04-21T08:56:36;13.00;99.90
23803;DHT22;12082;51.786;6.018;2023-04-21T08:59:01;12.70;99.90
23803;DHT22;12082;51.786;6.018;2023-04-21T09:01:27;12.90;99.90
23803;DHT22;12082;51.786;6.018;2023-04-21T09:03:52;12.80;99.90
23803;DHT22;12082;51.786;6.018;2023-04-21T09:06:18;12.80;99.90
23803;DHT22;12082;51.786;6.018;2023-04-21T09:08:52;12.70;99.90
23803;DHT22;12082;51.786;6.018;2023-04-21T09:11:20;12.80;99.90
23803;DHT22;12082;51.786;6.018;2023-04-21T09:13:46;12.80;99.90
23803;DHT22;12082;51.786;6.018;2023-04-21T09:16:17;12.70;99.90
23803;DHT22;12082;51.786;6.018;2023-04-21T09:18:44;12.70;99.90
23803;DHT22;12082;51.786;6.018;2023-04-21T09:21:17;12.70;99.90
23803;DHT22;12082;51.786;6.018;2023-04-21T09:23:48;12.60;99.90
23803;DHT22;12082;51.786;6.018;2023-04-21T09:26:15;12.60;99.90
23803;DHT22;12082;51.786;6.018;2023-04-21T09:28:46;12.60;99.90
23803;DHT22;12082;51.786;6.018;2023-04-21T09:33:44;12.70;99.90
23803;DHT22;12082;51.786;6.018;2023-04-21T09:36:17;12.90;99.90
23803;DHT22;12082;51.786;6.018;2023-04-21T09:41:18;13.00;99.90
23803;DHT22;12082;51.786;6.018;2023-04-21T09:43:44;13.00;99.90
23803;DHT22;12082;51.786;6.018;2023-04-21T09:46:11;13.10;99.90
23803;DHT22;12082;51.786;6.018;2023-04-21T09:48:39;13.10;99.90
23803;DHT22;12082;51.786;6.018;2023-04-21T09:51:07;13.20;99.90
23803;DHT22;12082;51.786;6.018;2023-04-21T09:53:33;13.10;99.90
23803;DHT22;12082;51.786;6.018;2023-04-21T09:56:03;13.20;99.90
23803;DHT22;12082;51.786;6.018;2023-04-21T09:58:36;13.30;99.90
23803;DHT22;12082;51.786;6.018;2023-04-21T10:01:05;13.60;99.90
23803;DHT22;12082;51.786;6.018;2023-04-21T10:03:31;13.60;99.90
23803;DHT22;12082;51.786;6.018;2023-04-21T10:05:57;13.60;99.90
23803;DHT22;12082;51.786;6.018;2023-04-21T10:08:22;13.70;99.90
23803;DHT22;12082;51.786;6.018;2023-04-21T10:10:48;13.70;99.90
23803;DHT22;12082;51.786;6.018;2023-04-21T10:13:14;13.80;99.90
23803;DHT22;12082;51.786;6.018;2023-04-21T10:15:42;13.70;99.90
23803;DHT22;12082;51.786;6.018;2023-04-21T10:18:16;13.70;99.90
23803;DHT22;12082;51.786;6.018;2023-04-21T10:21:01;13.80;99.90
23803;DHT22;12082;51.786;6.018;2023-04-21T10:23:43;13.90;99.90
23803;DHT22;12082;51.786;6.018;2023-04-21T10:26:21;14.10;99.90
23803;DHT22;12082;51.786;6.018;2023-04-21T10:29:06;13.90;99.90
23803;DHT22;12082;51.786;6.018;2023-04-21T10:39:11;13.50;99.90
23803;DHT22;12082;51.786;6.018;2023-04-21T10:41:38;13.40;99.90
23803;DHT22;12082;51.786;6.018;2023-04-21T10:46:37;13.00;99.90
23803;DHT22;12082;51.786;6.018;2023-04-21T10:49:27;12.90;99.90
23803;DHT22;12082;51.786;6.018;2023-04-21T10:54:29;13.00;99.90
23803;DHT22;12082;51.786;6.018;2023-04-21T10:56:58;13.00;99.90
23803;DHT22;12082;51.786;6.018;2023-04-21T10:59:25;13.10;99.90
23803;DHT22;12082;51.786;6.018;2023-04-21T11:01:51;13.20;99.90
23803;DHT22;12082;51.786;6.018;2023-04-21T11:04:18;13.20;99.90
23803;DHT22;12082;51.786;6.018;2023-04-21T11:07:10;13.30;99.90
23803;DHT22;12082;51.786;6.018;2023-04-21T11:09:36;13.30;99.90
23803;DHT22;12082;51.786;6.018;2023-04-21T11:12:04;13.30;99.90
23803;DHT22;12082;51.786;6.018;2023-04-21T11:14:32;13.50;99.90
23803;DHT22;12082;51.786;6.018;2023-04-21T11:16:58;13.90;99.90
23803;DHT22;12082;51.786;6.018;2023-04-21T11:19:24;14.00;99.90
23803;DHT22;12082;51.786;6.018;2023-04-21T11:21:52;14.20;99.90
23803;DHT22;12082;51.786;6.018;2023-04-21T11:24:20;14.40;99.90
23803;DHT22;12082;51.786;6.018;2023-04-21T11:26:45;14.60;99.90
23803;DHT22;12082;51.786;6.018;2023-04-21T11:29:11;14.60;99.90
23803;DHT22;12082;51.786;6.018;2023-04-21T11:31:38;14.40;99.90
23803;DHT22;12082;51.786;6.018;2023-04-21T11:34:05;14.20;99.90
23803;DHT22;12082;51.786;6.018;2023-04-21T11:36:42;14.20;99.90
23803;DHT22;12082;51.786;6.018;2023-04-21T11:39:13;14.30;99.90
23803;DHT22;12082;51.786;6.018;2023-04-21T11:41:45;14.50;99.90
23803;DHT22;12082;51.786;6.018;2023-04-21T11:44:12;14.90;99.90
23803;DHT22;12082;51.786;6.018;2023-04-21T11:46:44;15.30;99.90
23803;DHT22;12082;51.786;6.018;2023-04-21T11:49:11;15.40;99.90
23803;DHT22;12082;51.786;6.018;2023-04-21T11:51:42;15.50;99.90
23803;DHT22;12082;51.786;6.018;2023-04-21T11:54:09;15.50;99.90
23803;DHT22;12082;51.786;6.018;2023-04-21T11:56:40;15.60;99.90
23803;DHT22;12082;51.786;6.018;2023-04-21T11:59:11;15.50;99.90
23803;DHT22;12082;51.786;6.018;2023-04-21T12:01:51;15.30;99.90
23803;DHT22;12082;51.786;6.018;2023-04-21T12:04:21;15.10;99.90
23803;DHT22;12082;51.786;6.018;2023-04-21T12:07:01;15.00;99.90
23803;DHT22;12082;51.786;6.018;2023-04-21T12:09:28;15.00;99.90
23803;DHT22;12082;51.786;6.018;2023-04-21T12:11:55;14.80;99.90
23803;DHT22;12082;51.786;6.018;2023-04-21T12:14:26;15.00;99.90
23803;DHT22;12082;51.786;6.018;2023-04-21T12:16:56;15.60;99.90
23803;DHT22;12082;51.786;6.018;2023-04-21T12:19:40;15.90;99.90
23803;DHT22;12082;51.786;6.018;2023-04-21T12:22:15;15.50;99.90
23803;DHT22;12082;51.786;6.018;2023-04-21T12:24:43;15.50;99.90
23803;DHT22;12082;51.786;6.018;2023-04-21T12:27:09;15.60;99.90
23803;DHT22;12082;51.786;6.018;2023-04-21T12:29:34;15.70;99.90
23803;DHT22;12082;51.786;6.018;2023-04-21T12:32:02;15.80;99.90
23803;DHT22;12082;51.786;6.018;2023-04-21T12:34:27;15.80;99.90
23803;DHT22;12082;51.786;6.018;2023-04-21T12:36:53;15.50;99.90
23803;DHT22;12082;51.786;6.018;2023-04-21T12:39:19;15.50;99.90
23803;DHT22;12082;51.786;6.018;2023-04-21T12:41:46;15.30;99.90
23803;DHT22;12082;51.786;6.018;2023-04-21T12:44:12;15.20;99.90
23803;DHT22;12082;51.786;6.018;2023-04-21T12:46:38;15.10;99.90
23803;DHT22;12082;51.786;6.018;2023-04-21T12:49:05;15.30;99.90
23803;DHT22;12082;51.786;6.018;2023-04-21T12:51:32;15.70;99.90
23803;DHT22;12082;51.786;6.018;2023-04-21T12:53:57;15.90;99.90
23803;DHT22;12082;51.786;6.018;2023-04-21T12:56:23;15.80;99.90
23803;DHT22;12082;51.786;6.018;2023-04-21T12:58:49;15.70;99.90
23803;DHT22;12082;51.786;6.018;2023-04-21T13:01:15;15.70;99.90
23803;DHT22;12082;51.786;6.018;2023-04-21T13:03:41;16.00;99.90
23803;DHT22;12082;51.786;6.018;2023-04-21T13:06:07;16.10;99.90
23803;DHT22;12082;51.786;6.018;2023-04-21T13:08:34;16.00;99.90
23803;DHT22;12082;51.786;6.018;2023-04-21T13:11:01;16.10;99.90
23803;DHT22;12082;51.786;6.018;2023-04-21T13:13:26;15.90;99.90
23803;DHT22;12082;51.786;6.018;2023-04-21T13:15:52;15.80;99.90
23803;DHT22;12082;51.786;6.018;2023-04-21T13:18:18;15.80;99.90
23803;DHT22;12082;51.786;6.018;2023-04-21T13:20:43;15.60;99.90
23803;DHT22;12082;51.786;6.018;2023-04-21T13:23:09;15.60;99.90
23803;DHT22;12082;51.786;6.018;2023-04-21T13:25:36;15.70;99.90
23803;DHT22;12082;51.786;6.018;2023-04-21T13:28:01;16.10;99.90
23803;DHT22;12082;51.786;6.018;2023-04-21T13:30:27;16.40;99.90
23803;DHT22;12082;51.786;6.018;2023-04-21T13:32:53;16.50;99.90
23803;DHT22;12082;51.786;6.018;2023-04-21T13:35:18;16.40;99.90
23803;DHT22;12082;51.786;6.018;2023-04-21T13:37:44;16.20;99.90
23803;DHT22;12082;51.786;6.018;2023-04-21T13:40:10;16.20;99.90
23803;DHT22;12082;51.786;6.018;2023-04-21T13:42:36;16.40;99.90
23803;DHT22;12082;51.786;6.018;2023-04-21T13:45:02;16.60;99.90
23803;DHT22;12082;51.786;6.018;2023-04-21T13:47:29;16.70;99.90
23803;DHT22;12082;51.786;6.018;2023-04-21T13:49:55;16.80;99.90
23803;DHT22;12082;51.786;6.018;2023-04-21T13:52:21;16.80;99.90
23803;DHT22;12082;51.786;6.018;2023-04-21T13:54:46;16.90;99.90
23803;DHT22;12082;51.786;6.018;2023-04-21T13:57:12;17.10;99.90
23803;DHT22;12082;51.786;6.018;2023-04-21T13:59:37;16.90;99.90
23803;DHT22;12082;51.786;6.018;2023-04-21T14:02:03;16.90;99.90
23803;DHT22;12082;51.786;6.018;2023-04-21T14:04:28;17.10;99.90
23803;DHT22;12082;51.786;6.018;2023-04-21T14:06:54;16.50;99.90
23803;DHT22;12082;51.786;6.018;2023-04-21T14:09:20;17.30;99.90
23803;DHT22;12082;51.786;6.018;2023-04-21T14:11:46;17.60;99.90
23803;DHT22;12082;51.786;6.018;2023-04-21T14:14:12;18.00;99.90
23803;DHT22;12082;51.786;6.018;2023-04-21T14:16:37;17.90;99.90
23803;DHT22;12082;51.786;6.018;2023-04-21T14:19:03;18.10;99.90
23803;DHT22;12082;51.786;6.018;2023-04-21T14:21:28;18.10;99.90
23803;DHT22;12082;51.786;6.018;2023-04-21T14:23:54;18.00;99.90
23803;DHT22;12082;51.786;6.018;2023-04-21T14:26:19;18.10;99.90
23803;DHT22;12082;51.786;6.018;2023-04-21T14:28:45;18.00;99.90
23803;DHT22;12082;51.786;6.018;2023-04-21T14:31:11;17.90;99.90
23803;DHT22;12082;51.786;6.018;2023-04-21T14:33:36;18.00;99.90
23803;DHT22;12082;51.786;6.018;2023-04-21T14:36:02;17.80;99.90
23803;DHT22;12082;51.786;6.018;2023-04-21T14:38:28;17.70;99.90
23803;DHT22;12082;51.786;6.018;2023-04-21T14:40:55;17.50;99.90
23803;DHT22;12082;51.786;6.018;2023-04-21T14:43:21;17.30;99.90
23803;DHT22;12082;51.786;6.018;2023-04-21T14:45:47;17.20;99.90
23803;DHT22;12082;51.786;6.018;2023-04-21T14:48:12;17.00;99.90
23803;DHT22;12082;51.786;6.018;2023-04-21T14:50:39;17.00;99.90
23803;DHT22;12082;51.786;6.018;2023-04-21T14:53:05;17.00;99.90
23803;DHT22;12082;51.786;6.018;2023-04-21T14:55:31;17.10;99.90
23803;DHT22;12082;51.786;6.018;2023-04-21T14:57:57;17.10;99.90
23803;DHT22;12082;51.786;6.018;2023-04-21T15:00:22;17.00;99.90
23803;DHT22;12082;51.786;6.018;2023-04-21T15:02:48;17.00;99.90
23803;DHT22;12082;51.786;6.018;2023-04-21T15:05:14;17.10;99.90
23803;DHT22;12082;51.786;6.018;2023-04-21T15:07:40;17.10;99.90
23803;DHT22;12082;51.786;6.018;2023-04-21T15:10:07;17.40;99.90
23803;DHT22;12082;51.786;6.018;2023-04-21T15:12:33;17.50;99.90
23803;DHT22;12082;51.786;6.018;2023-04-21T15:14:58;17.60;99.90
23803;DHT22;12082;51.786;6.018;2023-04-21T15:17:24;17.30;99.90
23803;DHT22;12082;51.786;6.018;2023-04-21T15:19:49;17.50;99.90
23803;DHT22;12082;51.786;6.018;2023-04-21T15:22:15;17.70;99.90
23803;DHT22;12082;51.786;6.018;2023-04-21T15:24:41;18.20;99.90
23803;DHT22;12082;51.786;6.018;2023-04-21T15:27:06;18.30;99.90
23803;DHT22;12082;51.786;6.018;2023-04-21T15:29:32;18.60;99.90
23803;DHT22;12082;51.786;6.018;2023-04-21T15:31:57;17.90;99.90
23803;DHT22;12082;51.786;6.018;2023-04-21T15:34:23;17.80;99.90
23803;DHT22;12082;51.786;6.018;2023-04-21T15:36:48;17.60;99.90
23803;DHT22;12082;51.786;6.018;2023-04-21T15:39:14;17.50;99.90
23803;DHT22;12082;51.786;6.018;2023-04-21T15:41:39;17.70;99.90
23803;DHT22;12082;51.786;6.018;2023-04-21T15:44:05;17.80;99.90
23803;DHT22;12082;51.786;6.018;2023-04-21T15:46:31;17.70;99.90
23803;DHT22;12082;51.786;6.018;2023-04-21T15:48:58;17.40;99.90
23803;DHT22;12082;51.786;6.018;2023-04-21T15:51:24;17.50;99.90